Terminal Aerodrome Forecast
Issued by NWS

Home | Current Version | Previous Version | Text Only | Print | Product List | Glossary On
Versions: 1 2 3 4 5 6 7 8 9 10 11 12 13 14 15 16 17
000
FTUS42 TJSJ 270500
TAFJSJ
TAF
TJSJ 270540Z 2706/2806 10006KT P6SM FEW030
     FM271300 08010KT P6SM SCT028
     FM271600 07012KT P6SM FEW040
     FM272200 08006KT P6SM FEW030=

USA.gov is the U.S. government's official web portal to all federal, state and local government web resources and services.